Time;durP1;ratioP1;P1;durP2;ratioP2;P2;SDS_P1;SDS_P2;PMS_P1;PMS_P2;Temp;Humidity;BMP_temperature;BMP_pressure;BME280_temperature;BME280_humidity;BME280_pressure;Samples;Min_cycle;Max_cycle;Signal;HPM_P1;HPM_P2
2023/09/23 00:00:27;;;;;;;3.58;0.93;;;;;;;23.27;54.48;98032.97;2065593;28;20058;-63
2023/09/23 00:01:28;;;;;;;3.63;1.67;;;;;;;23.30;54.76;98033.28;2066110;28;20112;-63
2023/09/23 00:02:30;;;;;;;2.40;1.08;;;;;;;23.29;54.61;98037.06;2067407;28;20116;-63
2023/09/23 00:03:33;;;;;;;9.18;1.50;;;;;;;23.28;53.96;98040.00;2064694;28;20137;-63
2023/09/23 00:04:35;;;;;;;6.15;1.67;;;;;;;23.15;53.92;98036.59;2065546;28;20046;-63
2023/09/23 00:05:39;;;;;;;3.55;1.40;;;;;;;23.15;54.38;98030.34;2063925;28;20050;-62
2023/09/23 00:06:42;;;;;;;5.00;0.77;;;;;;;23.19;54.27;98032.31;2063848;28;20519;-63
2023/09/23 00:07:43;;;;;;;2.88;1.10;;;;;;;23.21;54.82;98034.78;2066967;28;20073;-63
2023/09/23 00:08:45;;;;;;;3.58;1.58;;;;;;;23.21;54.10;98032.06;2059613;28;20088;-63
2023/09/23 00:09:47;;;;;;;3.00;0.98;;;;;;;22.95;52.76;98041.63;2061151;28;20042;-63
2023/09/23 00:10:50;;;;;;;4.90;1.17;;;;;;;22.66;51.87;98046.31;2065234;28;20073;-63
2023/09/23 00:11:51;;;;;;;5.80;0.98;;;;;;;22.51;52.45;98054.94;2066318;28;20073;-63
2023/09/23 00:12:55;;;;;;;3.30;1.38;;;;;;;22.50;53.56;98059.53;2067589;28;20042;-63
2023/09/23 00:13:57;;;;;;;3.00;1.13;;;;;;;22.47;53.77;98053.81;2065600;28;20085;-63
2023/09/23 00:14:58;;;;;;;2.67;1.23;;;;;;;22.57;54.49;98061.28;2065444;28;21222;-64
2023/09/23 00:16:00;;;;;;;2.72;1.23;;;;;;;22.72;53.89;98064.25;2066896;28;20139;-63
2023/09/23 00:17:03;;;;;;;3.88;1.20;;;;;;;22.46;53.42;98063.81;2065739;28;20457;-63
2023/09/23 00:18:05;;;;;;;2.80;1.00;;;;;;;22.41;53.88;98058.31;2065109;28;20050;-63
2023/09/23 00:19:08;;;;;;;2.38;1.00;;;;;;;22.38;53.66;98058.78;2063725;28;20497;-63
2023/09/23 00:20:14;;;;;;;4.28;1.52;;;;;;;22.42;54.40;98059.94;2066327;28;20548;-63
2023/09/23 00:21:16;;;;;;;2.33;0.82;;;;;;;22.59;54.50;98067.25;2066016;28;20099;-63
2023/09/23 00:22:18;;;;;;;5.38;1.58;;;;;;;22.59;53.46;98065.38;2064028;28;20069;-63
2023/09/23 00:23:20;;;;;;;4.80;1.17;;;;;;;22.41;54.13;98055.59;2063414;28;20046;-63
2023/09/23 00:24:23;;;;;;;4.15;1.75;;;;;;;22.37;54.68;98067.13;2064733;28;20046;-63
2023/09/23 00:25:25;;;;;;;3.17;1.02;;;;;;;22.30;54.13;98078.91;2065859;28;20046;-63
2023/09/23 00:26:27;;;;;;;2.58;0.88;;;;;;;22.22;54.94;98089.28;2065514;28;20068;-63
2023/09/23 00:27:30;;;;;;;2.75;1.05;;;;;;;22.19;55.58;98084.34;2060634;28;20050;-63
2023/09/23 00:28:32;;;;;;;1.50;0.80;;;;;;;22.27;55.08;98079.38;2065770;28;20074;-63
2023/09/23 00:29:33;;;;;;;3.80;0.95;;;;;;;22.29;54.92;98087.25;2069042;28;20521;-63
2023/09/23 00:30:36;;;;;;;2.63;0.93;;;;;;;22.30;54.71;98088.91;2061315;28;20066;-63
2023/09/23 00:31:37;;;;;;;5.25;1.33;;;;;;;22.30;54.92;98088.91;2064580;28;20533;-63
2023/09/23 00:32:38;;;;;;;2.38;0.98;;;;;;;22.03;55.61;98086.72;2066732;28;20062;-63
2023/09/23 00:33:40;;;;;;;6.25;1.48;;;;;;;22.09;55.71;98088.47;2062472;28;20169;-64
2023/09/23 00:34:41;;;;;;;4.35;0.95;;;;;;;22.14;56.05;98079.63;2066328;28;20649;-62
2023/09/23 00:35:44;;;;;;;5.80;0.98;;;;;;;22.23;55.56;98080.94;2065502;28;20050;-62
2023/09/23 00:36:47;;;;;;;1.90;0.63;;;;;;;22.28;55.53;98074.78;2067077;28;20464;-63
2023/09/23 00:37:49;;;;;;;5.20;0.98;;;;;;;22.18;55.63;98075.44;2064051;28;20057;-63
2023/09/23 00:38:50;;;;;;;3.40;2.45;;;;;;;22.13;55.33;98067.19;2065148;28;20057;-63
2023/09/23 00:39:53;;;;;;;4.32;0.80;;;;;;;22.08;55.77;98073.31;2065683;28;20161;-62
2023/09/23 00:40:55;;;;;;;3.45;1.10;;;;;;;22.02;55.96;98081.56;2063591;28;20065;-63
2023/09/23 00:41:58;;;;;;;5.55;1.60;;;;;;;21.88;56.11;98086.41;2067061;28;20045;-63
2023/09/23 00:43:05;;;;;;;3.13;0.90;;;;;;;21.68;56.95;98088.69;2067439;28;20082;-62
2023/09/23 00:44:07;;;;;;;3.72;1.52;;;;;;;21.63;57.01;98095.59;2057466;28;20142;-63
2023/09/23 00:45:15;;;;;;;2.78;1.23;;;;;;;21.55;58.03;98098.66;2063867;28;20053;-62
2023/09/23 00:46:21;;;;;;;1.85;1.08;;;;;;;21.44;58.28;98090.56;2063167;28;20156;-63
2023/09/23 00:47:23;;;;;;;1.67;0.93;;;;;;;21.50;58.39;98089.63;2065653;28;20073;-63
2023/09/23 00:48:25;;;;;;;5.40;1.15;;;;;;;21.61;58.30;98083.38;2064273;28;20132;-63
2023/09/23 00:49:27;;;;;;;4.22;1.15;;;;;;;21.71;58.18;98077.41;2062783;28;20053;-62
2023/09/23 00:50:29;;;;;;;4.85;1.00;;;;;;;21.88;57.84;98077.50;2064526;28;20127;-63
2023/09/23 00:51:32;;;;;;;2.75;0.77;;;;;;;21.88;57.87;98080.19;2066952;28;20045;-63
2023/09/23 00:52:35;;;;;;;4.07;1.27;;;;;;;21.87;58.43;98073.97;2064544;28;20046;-63
2023/09/23 00:53:39;;;;;;;2.28;0.90;;;;;;;21.91;58.17;98068.91;2065091;28;20050;-63
2023/09/23 00:54:41;;;;;;;2.97;0.68;;;;;;;22.09;57.82;98068.72;2064029;28;20053;-63
2023/09/23 00:55:51;;;;;;;2.58;0.95;;;;;;;22.23;57.63;98058.50;2063325;28;20054;-63
2023/09/23 00:56:54;;;;;;;2.13;0.83;;;;;;;22.34;57.06;98046.81;2065675;28;20049;-62
2023/09/23 00:57:56;;;;;;;7.07;1.20;;;;;;;22.43;56.84;98053.47;2065937;28;20362;-62
2023/09/23 00:58:59;;;;;;;3.25;0.90;;;;;;;22.45;57.11;98048.63;2067740;28;20080;-63
2023/09/23 01:00:00;;;;;;;1.42;0.82;;;;;;;22.45;57.24;98048.63;2064693;28;20535;-63
2023/09/23 01:01:02;;;;;;;3.42;1.65;;;;;;;22.49;57.17;98049.81;2066454;28;20049;-63
2023/09/23 01:02:03;;;;;;;5.90;1.05;;;;;;;22.43;57.19;98053.47;2060876;28;20050;-63
2023/09/23 01:03:07;;;;;;;3.15;1.02;;;;;;;22.48;56.99;98058.97;2064952;28;20108;-63
2023/09/23 01:04:13;;;;;;;5.90;1.50;;;;;;;22.57;56.78;98055.88;2059894;28;20054;-62
2023/09/23 01:05:18;;;;;;;2.33;0.88;;;;;;;22.67;56.73;98053.34;2062420;28;20057;-63
2023/09/23 01:06:21;;;;;;;2.45;0.63;;;;;;;22.79;56.82;98058.66;2064807;28;20069;-63
2023/09/23 01:07:23;;;;;;;3.83;1.10;;;;;;;22.84;56.56;98056.06;2064425;28;20121;-63
2023/09/23 01:08:26;;;;;;;2.75;0.60;;;;;;;22.85;56.71;98060.41;2065018;28;20054;-63
2023/09/23 01:09:29;;;;;;;3.63;1.15;;;;;;;22.83;56.59;98060.66;2065995;28;20054;-63
2023/09/23 01:10:31;;;;;;;3.97;1.08;;;;;;;22.77;56.72;98075.16;2064099;28;20046;-63
2023/09/23 01:11:35;;;;;;;5.13;1.65;;;;;;;22.73;56.85;98071.28;2066584;28;20532;-63
2023/09/23 01:12:36;;;;;;;1.77;0.82;;;;;;;22.83;56.73;98066.06;2063970;28;20053;-63
2023/09/23 01:13:37;;;;;;;3.75;0.80;;;;;;;22.88;56.56;98068.84;2068265;28;20124;-63
2023/09/23 01:14:39;;;;;;;2.10;1.00;;;;;;;22.97;57.04;98067.41;2058418;28;20046;-63
2023/09/23 01:15:41;;;;;;;1.30;0.80;;;;;;;23.05;56.63;98068.88;2064244;28;20500;-63
2023/09/23 01:16:43;;;;;;;3.80;1.30;;;;;;;23.07;56.35;98065.94;2062309;28;20104;-63
2023/09/23 01:17:44;;;;;;;3.17;0.90;;;;;;;23.06;56.62;98065.09;2065403;28;20154;-63
2023/09/23 01:18:48;;;;;;;4.03;0.80;;;;;;;23.03;56.57;98056.66;2062125;28;20060;-62
2023/09/23 01:19:52;;;;;;;4.53;1.02;;;;;;;23.02;56.58;98063.16;2063915;28;20421;-63
2023/09/23 01:20:56;;;;;;;2.30;0.73;;;;;;;22.91;57.22;98057.53;2063446;28;20327;-63
2023/09/23 01:21:58;;;;;;;2.70;0.82;;;;;;;22.85;57.70;98055.81;2067182;28;20042;-63
2023/09/23 01:23:01;;;;;;;2.25;1.63;;;;;;;22.89;57.34;98053.44;2066292;28;20644;-63
2023/09/23 01:24:04;;;;;;;5.18;1.33;;;;;;;22.94;57.27;98051.63;2065682;28;20053;-64
2023/09/23 01:25:06;;;;;;;4.22;1.45;;;;;;;22.91;57.51;98044.03;2064456;28;20177;-63
2023/09/23 01:26:11;;;;;;;2.45;1.30;;;;;;;22.86;57.74;98049.34;2063406;28;20089;-63
2023/09/23 01:27:12;;;;;;;4.97;1.20;;;;;;;22.76;58.23;98046.47;2065312;28;20660;-63
2023/09/23 01:28:14;;;;;;;3.33;0.95;;;;;;;22.77;58.02;98048.13;2061920;28;20137;-63
2023/09/23 01:29:17;;;;;;;3.20;1.63;;;;;;;22.57;58.93;98050.50;2061612;28;20068;-63
2023/09/23 01:30:21;;;;;;;4.28;0.85;;;;;;;22.60;58.79;98042.69;2065289;28;20121;-64
2023/09/23 01:31:25;;;;;;;3.20;1.00;;;;;;;22.68;58.58;98042.31;2065500;28;20076;-63
2023/09/23 01:32:35;;;;;;;3.35;1.13;;;;;;;22.72;58.40;98037.22;2056026;28;20161;-63
2023/09/23 01:33:36;;;;;;;2.45;0.93;;;;;;;22.70;58.41;98039.34;2056364;28;20509;-63
2023/09/23 01:34:38;;;;;;;4.10;1.15;;;;;;;22.78;58.14;98035.41;2061901;28;20042;-63
2023/09/23 01:35:40;;;;;;;2.88;0.90;;;;;;;22.81;58.03;98034.91;2063801;28;20049;-63
2023/09/23 01:36:42;;;;;;;5.28;0.93;;;;;;;22.78;58.07;98036.22;2059432;28;20046;-63
2023/09/23 01:37:44;;;;;;;4.22;1.00;;;;;;;22.76;58.29;98032.94;2065199;28;20054;-63
2023/09/23 01:38:48;;;;;;;2.53;1.15;;;;;;;22.74;58.37;98035.09;2064259;28;20049;-63
2023/09/23 01:39:52;;;;;;;3.85;1.15;;;;;;;22.72;58.42;98035.31;2065811;28;20053;-63
2023/09/23 01:40:55;;;;;;;2.28;0.68;;;;;;;22.75;58.27;98036.72;2064132;28;20455;-63
2023/09/23 01:41:55;;;;;;;2.25;0.90;;;;;;;22.81;57.82;98032.22;2064002;28;20076;-63
2023/09/23 01:42:58;;;;;;;1.70;0.93;;;;;;;22.80;58.09;98026.00;2064493;28;20099;-63
2023/09/23 01:44:00;;;;;;;5.07;1.60;;;;;;;22.74;58.18;98025.09;2063189;28;20046;-62
2023/09/23 01:45:03;;;;;;;2.72;1.35;;;;;;;22.79;58.50;98020.81;2067728;28;20054;-62
2023/09/23 01:46:06;;;;;;;4.03;1.45;;;;;;;22.76;58.25;98027.53;2063576;28;20077;-63
2023/09/23 01:47:07;;;;;;;2.63;0.75;;;;;;;22.76;58.13;98019.44;2066007;28;20107;-63
2023/09/23 01:48:09;;;;;;;3.60;0.93;;;;;;;22.77;58.29;98018.38;2065448;28;20054;-63
2023/09/23 01:49:10;;;;;;;2.50;1.42;;;;;;;22.81;58.29;98019.50;2063897;28;20058;-62
2023/09/23 01:50:14;;;;;;;4.93;1.67;;;;;;;22.83;58.20;98014.69;2061971;28;20054;-63
2023/09/23 01:51:16;;;;;;;2.80;0.80;;;;;;;22.82;58.15;98010.34;2063244;28;20188;-63
2023/09/23 01:52:18;;;;;;;2.22;1.23;;;;;;;22.79;58.37;98020.81;2062886;28;20439;-63
2023/09/23 01:53:21;;;;;;;2.95;0.90;;;;;;;22.76;58.34;98014.03;2061533;28;20057;-63
2023/09/23 01:54:26;;;;;;;2.50;0.90;;;;;;;22.73;58.59;98015.34;2059578;28;20417;-63
2023/09/23 01:55:27;;;;;;;6.22;1.40;;;;;;;22.75;58.49;98010.50;2062480;28;20050;-63
2023/09/23 01:56:31;;;;;;;2.30;1.25;;;;;;;22.75;58.54;98023.19;2063762;28;20072;-63
2023/09/23 01:57:33;;;;;;;3.05;1.27;;;;;;;22.74;58.59;98018.88;2066066;28;20061;-63
2023/09/23 01:58:35;;;;;;;2.72;1.00;;;;;;;22.75;58.56;98020.50;2064146;28;20058;-63
2023/09/23 01:59:36;;;;;;;0.93;0.60;;;;;;;22.77;58.33;98022.97;2066774;28;20046;-63
2023/09/23 02:00:38;;;;;;;3.88;1.05;;;;;;;22.78;58.29;98027.31;2066455;28;20161;-62
2023/09/23 02:01:40;;;;;;;2.53;1.30;;;;;;;22.74;58.52;98022.41;2065379;28;20065;-63
2023/09/23 02:02:42;;;;;;;1.52;0.80;;;;;;;22.77;58.46;98026.50;2064599;28;20069;-63
2023/09/23 02:03:43;;;;;;;5.13;1.75;;;;;;;22.73;58.73;98031.56;2062972;28;20068;-62
2023/09/23 02:04:45;;;;;;;4.15;2.03;;;;;;;22.74;58.41;98033.22;2064581;28;20061;-63
2023/09/23 02:05:48;;;;;;;4.05;0.80;;;;;;;22.73;58.76;98026.16;2063026;28;20527;-62
2023/09/23 02:06:49;;;;;;;4.05;1.45;;;;;;;22.70;58.75;98017.72;2063015;28;20054;-63
2023/09/23 02:07:51;;;;;;;4.53;1.60;;;;;;;22.71;58.82;98019.38;2065812;28;20045;-62
2023/09/23 02:08:52;;;;;;;4.32;1.05;;;;;;;22.72;58.60;98021.81;2062888;28;20060;-63
2023/09/23 02:09:55;;;;;;;2.92;0.82;;;;;;;22.76;58.64;98019.44;2061805;28;20126;-63
2023/09/23 02:10:56;;;;;;;4.47;1.25;;;;;;;22.77;58.75;98023.78;2063365;28;20509;-63
2023/09/23 02:11:59;;;;;;;6.75;1.30;;;;;;;22.74;58.21;98024.28;2064930;28;20129;-63
2023/09/23 02:13:00;;;;;;;3.95;1.10;;;;;;;22.69;58.70;98022.31;2063431;28;20069;-63
2023/09/23 02:14:02;;;;;;;6.40;1.45;;;;;;;22.58;59.31;98022.38;2063067;28;20046;-63
2023/09/23 02:15:04;;;;;;;5.22;1.10;;;;;;;22.57;58.70;98028.88;2061883;28;20518;-64
2023/09/23 02:16:06;;;;;;;3.13;1.10;;;;;;;22.56;59.31;98028.03;2061419;28;20050;-63
2023/09/23 02:17:10;;;;;;;3.88;1.77;;;;;;;22.55;59.23;98021.00;2060812;28;20042;-63
2023/09/23 02:18:11;;;;;;;3.60;1.10;;;;;;;22.62;59.04;98018.13;2064855;28;20054;-62
2023/09/23 02:19:13;;;;;;;3.47;1.10;;;;;;;22.49;59.33;98020.09;2061483;28;20049;-63
2023/09/23 02:20:19;;;;;;;2.38;1.08;;;;;;;22.45;59.68;98015.41;2061830;28;20068;-63
2023/09/23 02:21:20;;;;;;;4.88;1.45;;;;;;;22.47;59.18;98019.50;2065926;28;20079;-62
2023/09/23 02:22:21;;;;;;;4.25;1.00;;;;;;;22.50;59.49;98024.41;2062138;28;20819;-63
2023/09/23 02:23:22;;;;;;;3.13;1.35;;;;;;;22.55;59.18;98020.16;2062629;28;20060;-63
2023/09/23 02:24:23;;;;;;;3.67;0.98;;;;;;;22.59;59.12;98013.19;2064466;28;20074;-63
2023/09/23 02:25:27;;;;;;;2.63;0.80;;;;;;;22.62;58.97;98012.72;2064334;28;20549;-63
2023/09/23 02:26:28;;;;;;;6.50;1.08;;;;;;;22.67;58.87;98023.59;2062437;28;20050;-63
2023/09/23 02:27:29;;;;;;;4.97;1.73;;;;;;;22.70;58.65;98015.81;2061647;28;20145;-63
2023/09/23 02:28:30;;;;;;;3.97;0.73;;;;;;;22.77;58.31;98012.97;2066147;28;20728;-63
2023/09/23 02:29:33;;;;;;;3.90;0.75;;;;;;;22.81;58.28;98008.69;2065303;28;20074;-63
2023/09/23 02:30:34;;;;;;;4.63;0.82;;;;;;;22.81;58.28;98016.81;2063418;28;20058;-63
2023/09/23 02:31:35;;;;;;;3.05;0.80;;;;;;;22.81;58.12;98016.00;2063690;28;20050;-62
2023/09/23 02:32:39;;;;;;;2.63;0.95;;;;;;;22.83;58.18;98016.56;2065309;28;20142;-63
2023/09/23 02:33:40;;;;;;;2.03;0.90;;;;;;;22.83;57.82;98013.88;2063890;28;20108;-63
2023/09/23 02:34:41;;;;;;;5.95;1.33;;;;;;;22.78;58.41;98008.38;2064279;28;20108;-62
2023/09/23 02:35:43;;;;;;;3.22;1.45;;;;;;;22.73;58.63;98014.50;2062152;28;20092;-63
2023/09/23 02:36:45;;;;;;;2.45;0.80;;;;;;;22.76;58.44;98011.31;2062909;28;20049;-63
2023/09/23 02:37:48;;;;;;;5.85;1.30;;;;;;;22.74;58.76;98008.88;2060173;28;20058;-63
2023/09/23 02:38:49;;;;;;;6.75;1.17;;;;;;;22.66;58.62;98013.88;2063552;28;20076;-63
2023/09/23 02:39:51;;;;;;;3.78;1.42;;;;;;;22.62;58.41;98018.13;2062306;28;20043;-63
2023/09/23 02:40:59;;;;;;;4.82;1.40;;;;;;;22.53;58.93;98009.59;2064442;28;20069;-63
2023/09/23 02:42:04;;;;;;;3.60;1.10;;;;;;;22.53;59.06;98006.88;2064765;28;20076;-63
2023/09/23 02:43:05;;;;;;;3.78;1.02;;;;;;;22.60;58.88;98018.38;2059943;28;20054;-63
2023/09/23 02:44:07;;;;;;;5.15;1.08;;;;;;;22.64;58.26;98018.69;2063161;28;20060;-62
2023/09/23 02:45:10;;;;;;;2.97;1.00;;;;;;;22.67;58.44;98019.00;2064170;28;20535;-63
2023/09/23 02:46:15;;;;;;;4.22;1.30;;;;;;;22.73;58.13;98014.50;2062528;28;20073;-63
2023/09/23 02:47:16;;;;;;;5.00;1.45;;;;;;;22.73;58.57;98017.22;2064560;28;20046;-63
2023/09/23 02:48:17;;;;;;;2.67;1.05;;;;;;;22.66;58.59;98011.16;2063778;28;20129;-64
2023/09/23 02:49:19;;;;;;;1.60;0.73;;;;;;;22.65;58.82;98014.91;2058160;28;20149;-63
2023/09/23 02:50:21;;;;;;;2.80;1.00;;;;;;;22.64;58.86;98016.00;2059957;28;20089;-63
2023/09/23 02:51:23;;;;;;;2.08;1.10;;;;;;;22.69;58.69;98011.50;2061482;28;20145;-63
2023/09/23 02:52:24;;;;;;;2.00;0.73;;;;;;;22.70;58.50;98017.72;2058259;28;20058;-63
2023/09/23 02:53:26;;;;;;;1.77;1.00;;;;;;;22.77;58.08;98015.69;2062627;28;20140;-63
2023/09/23 02:54:27;;;;;;;4.15;1.30;;;;;;;22.76;58.28;98014.03;2060861;28;20074;-63
2023/09/23 02:55:29;;;;;;;3.75;1.33;;;;;;;22.68;58.64;98015.28;2062927;28;20493;-63
2023/09/23 02:56:32;;;;;;;3.97;1.02;;;;;;;22.71;58.69;98008.56;2062369;28;20050;-63
2023/09/23 02:57:36;;;;;;;4.50;1.50;;;;;;;22.77;58.09;98012.97;2062674;28;20054;-62
2023/09/23 02:58:38;;;;;;;3.88;1.10;;;;;;;22.81;58.08;98024.91;2063040;28;20061;-63
2023/09/23 02:59:41;;;;;;;5.25;1.17;;;;;;;22.79;58.29;98015.41;2063401;28;20108;-63
2023/09/23 03:00:56;;;;;;;1.80;0.90;;;;;;;22.74;58.26;98021.56;2055785;28;20058;-63
2023/09/23 03:02:00;;;;;;;2.90;1.00;;;;;;;22.73;58.36;98028.03;2061576;28;20054;-62
2023/09/23 03:03:06;;;;;;;2.45;1.05;;;;;;;22.74;58.42;98033.22;2060967;28;20141;-62
2023/09/23 03:04:16;;;;;;;2.92;0.70;;;;;;;22.78;58.05;98025.41;2061524;28;20081;-63
2023/09/23 03:05:17;;;;;;;3.38;1.17;;;;;;;22.80;58.36;98023.28;2063610;28;20057;-63
2023/09/23 03:06:19;;;;;;;1.42;0.80;;;;;;;22.80;58.09;98023.28;2064627;28;20066;-63
2023/09/23 03:07:20;;;;;;;4.45;1.15;;;;;;;22.82;58.11;98018.47;2062529;28;20057;-63
2023/09/23 03:08:22;;;;;;;2.40;0.75;;;;;;;22.86;58.10;98016.91;2064944;28;20123;-62
2023/09/23 03:09:25;;;;;;;6.05;1.13;;;;;;;22.90;57.83;98022.63;2064050;28;20054;-62
2023/09/23 03:10:34;;;;;;;5.03;1.23;;;;;;;22.86;57.96;98013.38;2063171;28;20061;-63
2023/09/23 03:11:47;;;;;;;5.32;0.93;;;;;;;22.79;57.44;98020.81;2061714;28;20096;-63
2023/09/23 03:13:01;;;;;;;3.20;0.95;;;;;;;22.46;58.82;98027.84;2064928;28;20181;-63
2023/09/23 03:14:03;;;;;;;5.75;2.03;;;;;;;22.17;59.31;98035.13;2062694;28;20081;-62
2023/09/23 03:15:14;;;;;;;2.85;0.70;;;;;;;22.00;59.88;98033.19;2018788;28;1293020;-62
2023/09/23 03:16:28;;;;;;;3.40;0.90;;;;;;;21.93;60.19;98039.81;2064845;28;20057;-62
2023/09/23 03:17:31;;;;;;;4.97;0.82;;;;;;;21.92;60.58;98041.66;2062447;28;20060;-63
2023/09/23 03:18:34;;;;;;;6.75;1.65;;;;;;;22.12;59.90;98043.13;2062005;28;20046;-62
2023/09/23 03:19:35;;;;;;;3.83;1.40;;;;;;;22.26;59.59;98044.53;2060928;28;20084;-62
2023/09/23 03:20:40;;;;;;;3.00;1.20;;;;;;;22.28;59.75;98039.69;2065885;28;20149;-63
2023/09/23 03:21:42;;;;;;;3.72;0.98;;;;;;;22.29;59.27;98044.03;2061754;28;20058;-64
2023/09/23 03:22:44;;;;;;;1.50;0.50;;;;;;;22.08;59.61;98043.59;2064239;28;20045;-63
2023/09/23 03:23:45;;;;;;;3.60;1.38;;;;;;;22.07;59.87;98041.97;2061390;28;20042;-62
2023/09/23 03:24:48;;;;;;;3.72;1.45;;;;;;;22.21;59.50;98050.66;2065434;28;20128;-63
2023/09/23 03:25:51;;;;;;;3.08;0.93;;;;;;;22.34;59.06;98048.69;2062326;28;20077;-62
2023/09/23 03:26:55;;;;;;;4.10;1.20;;;;;;;22.38;58.75;98052.56;2063384;28;20084;-62
2023/09/23 03:27:57;;;;;;;4.68;1.48;;;;;;;22.41;58.91;98044.78;2063114;28;20042;-62
2023/09/23 03:28:59;;;;;;;3.85;1.55;;;;;;;22.46;58.63;98053.00;2063870;28;20050;-63
2023/09/23 03:30:02;;;;;;;3.58;0.75;;;;;;;22.48;58.63;98058.13;2062011;28;20059;-62
2023/09/23 03:31:07;;;;;;;3.33;0.90;;;;;;;22.44;58.37;98047.00;2064563;28;20137;-62
2023/09/23 03:32:07;;;;;;;5.65;1.52;;;;;;;22.33;58.56;98045.19;2063965;28;20421;-62
2023/09/23 03:33:11;;;;;;;4.18;1.33;;;;;;;22.30;59.13;98054.59;2065295;28;20064;-62
2023/09/23 03:34:13;;;;;;;5.28;1.55;;;;;;;22.41;58.67;98046.69;2064155;28;20137;-62
2023/09/23 03:35:17;;;;;;;6.05;0.98;;;;;;;22.42;58.59;98057.22;2064651;28;20363;-63
2023/09/23 03:36:20;;;;;;;5.30;1.10;;;;;;;22.49;58.41;98055.22;2063400;28;20041;-63
2023/09/23 03:37:22;;;;;;;2.15;0.80;;;;;;;22.49;58.33;98054.41;2066400;28;20054;-62
2023/09/23 03:38:25;;;;;;;6.15;1.17;;;;;;;22.41;58.77;98061.00;2064150;28;20064;-62
2023/09/23 03:39:26;;;;;;;2.97;1.05;;;;;;;22.37;58.80;98051.75;2064621;28;20085;-63
2023/09/23 03:40:30;;;;;;;4.50;1.38;;;;;;;22.32;58.46;98059.75;2064674;28;20049;-63
2023/09/23 03:41:33;;;;;;;1.77;0.88;;;;;;;22.28;58.95;98058.59;2063581;28;20062;-62
2023/09/23 03:42:35;;;;;;;3.30;1.23;;;;;;;22.19;59.42;98066.25;2061812;28;20157;-62
2023/09/23 03:43:37;;;;;;;3.92;0.90;;;;;;;22.25;59.14;98069.88;2066906;28;20077;-63
2023/09/23 03:44:38;;;;;;;4.40;1.33;;;;;;;22.27;59.04;98067.75;2064912;28;20513;-63
2023/09/23 03:45:40;;;;;;;3.17;1.10;;;;;;;22.30;58.92;98073.50;2066331;28;20108;-62
2023/09/23 03:46:42;;;;;;;2.30;0.85;;;;;;;22.27;58.74;98073.16;2068346;28;20425;-62
2023/09/23 03:47:44;;;;;;;3.10;0.95;;;;;;;22.22;58.99;98078.47;2068681;28;20046;-62
2023/09/23 03:48:46;;;;;;;9.50;1.25;;;;;;;22.26;58.87;98082.34;2062234;28;20055;-62
2023/09/23 03:49:47;;;;;;;4.28;0.70;;;;;;;22.33;58.83;98074.09;2063466;28;20112;-62
2023/09/23 03:50:52;;;;;;;4.25;1.23;;;;;;;22.42;58.84;98086.94;2065502;28;20625;-62
2023/09/23 03:51:53;;;;;;;3.47;1.30;;;;;;;22.49;58.31;98082.22;2065592;28;20053;-62
2023/09/23 03:52:55;;;;;;;3.22;1.20;;;;;;;22.50;58.36;98083.03;2064428;28;21539;-63
2023/09/23 03:53:56;;;;;;;4.32;1.10;;;;;;;22.54;58.31;98084.22;2066687;28;20054;-61
2023/09/23 03:54:58;;;;;;;6.80;1.38;;;;;;;22.53;58.19;98083.38;2065094;28;20064;-62
2023/09/23 03:56:00;;;;;;;4.00;0.82;;;;;;;22.55;58.29;98088.56;2063086;28;20045;-63
2023/09/23 03:57:05;;;;;;;3.70;1.27;;;;;;;22.56;58.55;98086.66;2064866;28;20410;-63
2023/09/23 03:58:07;;;;;;;1.98;0.70;;;;;;;22.51;58.26;98090.94;2067039;28;20103;-62
2023/09/23 03:59:09;;;;;;;2.05;0.80;;;;;;;22.49;58.58;98089.53;2063215;28;20586;-63
2023/09/23 04:00:16;;;;;;;2.65;0.68;;;;;;;22.52;58.37;98087.16;2067305;28;20099;-63
2023/09/23 04:01:20;;;;;;;1.95;0.82;;;;;;;22.53;58.63;98096.06;2064649;28;20277;-63
2023/09/23 04:02:21;;;;;;;5.00;1.58;;;;;;;22.48;57.46;98102.22;2066170;28;20115;-63
2023/09/23 04:03:23;;;;;;;1.02;0.70;;;;;;;22.45;58.54;98105.38;2063716;28;20129;-63
2023/09/23 04:04:24;;;;;;;3.25;0.90;;;;;;;22.46;58.51;98104.34;2064719;28;20107;-62
2023/09/23 04:05:28;;;;;;;6.57;1.85;;;;;;;22.56;58.12;98102.88;2063932;28;20108;-62
2023/09/23 04:06:29;;;;;;;3.20;1.58;;;;;;;22.62;58.18;98096.50;2064981;28;20068;-63
2023/09/23 04:07:32;;;;;;;1.08;0.77;;;;;;;22.63;57.96;98103.56;2064616;28;20054;-62
2023/09/23 04:08:33;;;;;;;5.00;1.00;;;;;;;22.62;57.93;98102.75;2062876;28;20057;-62
2023/09/23 04:09:35;;;;;;;3.80;0.88;;;;;;;22.51;58.29;98103.59;2065858;28;20053;-62
2023/09/23 04:10:39;;;;;;;3.58;0.75;;;;;;;22.45;58.20;98102.69;2063813;28;20665;-62
2023/09/23 04:11:41;;;;;;;2.10;1.15;;;;;;;22.41;58.57;98101.53;2064826;28;20666;-62
2023/09/23 04:12:42;;;;;;;4.57;0.98;;;;;;;22.42;58.43;98100.47;2063042;28;20060;-63
2023/09/23 04:13:46;;;;;;;4.65;0.95;;;;;;;22.47;58.47;98097.88;2067604;28;20480;-63
2023/09/23 04:14:47;;;;;;;3.85;0.85;;;;;;;22.46;57.84;98098.13;2065981;28;20068;-63
2023/09/23 04:15:49;;;;;;;3.35;1.00;;;;;;;22.21;58.78;98095.75;2066523;28;20042;-63
2023/09/23 04:16:50;;;;;;;4.95;1.48;;;;;;;22.25;59.20;98107.69;2067068;28;20084;-62
2023/09/23 04:17:52;;;;;;;7.15;1.02;;;;;;;22.25;58.99;98105.00;2066594;28;20057;-62
2023/09/23 04:18:53;;;;;;;2.25;1.52;;;;;;;22.24;59.06;98106.88;2062888;28;20050;-62
2023/09/23 04:19:55;;;;;;;2.85;0.98;;;;;;;22.26;59.18;98109.34;2064739;28;20145;-62
2023/09/23 04:20:56;;;;;;;3.60;1.38;;;;;;;22.28;59.09;98118.03;2062988;28;20041;-62
2023/09/23 04:21:58;;;;;;;1.20;0.55;;;;;;;22.27;58.70;98111.81;2061319;28;20049;-62
2023/09/23 04:22:59;;;;;;;3.30;1.20;;;;;;;22.21;58.65;98110.06;2065451;28;20096;-63
2023/09/23 04:24:01;;;;;;;5.47;1.20;;;;;;;22.25;58.97;98126.59;2066882;28;20456;-62
2023/09/23 04:25:04;;;;;;;3.33;0.85;;;;;;;22.26;58.89;98115.56;2064588;28;20172;-63
2023/09/23 04:26:08;;;;;;;4.22;0.95;;;;;;;22.22;58.86;98121.69;2066988;28;20053;-62
2023/09/23 04:27:09;;;;;;;4.43;1.45;;;;;;;21.89;59.77;98120.44;2065197;28;20421;-63
2023/09/23 04:28:10;;;;;;;5.55;1.75;;;;;;;21.90;60.00;98127.50;2061628;28;20050;-62
2023/09/23 04:29:14;;;;;;;4.82;1.17;;;;;;;21.93;59.97;98123.50;2067152;28;20086;-62
2023/09/23 04:30:15;;;;;;;8.50;1.38;;;;;;;22.01;59.43;98121.25;2066510;28;20113;-63
2023/09/23 04:31:18;;;;;;;7.30;1.50;;;;;;;22.07;59.53;98127.56;2065201;28;20054;-63
2023/09/23 04:32:19;;;;;;;7.85;1.23;;;;;;;22.06;59.24;98118.66;2064662;28;20545;-62
2023/09/23 04:33:22;;;;;;;3.85;1.00;;;;;;;22.13;59.46;98120.41;2066099;28;20054;-63
2023/09/23 04:34:24;;;;;;;3.17;1.00;;;;;;;22.23;58.93;98123.31;2060839;28;20076;-62
2023/09/23 04:35:26;;;;;;;6.70;1.38;;;;;;;22.27;58.72;98127.19;2070576;28;20053;-63
2023/09/23 04:36:28;;;;;;;2.67;0.90;;;;;;;22.22;58.92;98125.19;2066218;28;20049;-63
2023/09/23 04:37:30;;;;;;;7.70;0.90;;;;;;;22.22;58.67;98130.59;2066518;28;20046;-62
2023/09/23 04:38:31;;;;;;;3.03;0.85;;;;;;;22.27;58.62;98125.31;2066428;28;20050;-63
2023/09/23 04:39:34;;;;;;;3.30;0.65;;;;;;;22.34;58.25;98132.44;2061937;28;21926;-62
2023/09/23 04:40:35;;;;;;;2.55;1.30;;;;;;;22.37;58.25;98132.81;2063672;28;20105;-62
2023/09/23 04:41:40;;;;;;;3.72;1.02;;;;;;;22.38;58.47;98134.44;2062681;28;20421;-62
2023/09/23 04:42:42;;;;;;;3.67;1.20;;;;;;;22.36;58.41;98139.25;2063639;28;20050;-62
2023/09/23 04:43:44;;;;;;;1.48;0.73;;;;;;;22.35;58.29;98128.72;2064770;28;20587;-62
2023/09/23 04:44:47;;;;;;;9.38;1.20;;;;;;;22.33;58.39;98142.44;2064934;28;20066;-62
2023/09/23 04:45:50;;;;;;;3.78;0.80;;;;;;;22.29;58.55;98139.41;2065537;28;20050;-62
2023/09/23 04:46:51;;;;;;;9.00;2.22;;;;;;;22.30;58.71;98141.03;2060469;28;20197;-63
2023/09/23 04:47:53;;;;;;;6.85;1.08;;;;;;;22.36;58.77;98143.84;2066068;28;20050;-63
2023/09/23 04:48:53;;;;;;;4.90;1.17;;;;;;;22.37;58.55;98146.31;2063233;28;20057;-63
2023/09/23 04:49:58;;;;;;;4.40;0.80;;;;;;;22.40;58.43;98153.94;2065954;28;20472;-63
2023/09/23 04:50:59;;;;;;;5.22;1.63;;;;;;;22.41;58.17;98139.38;2065361;28;20095;-63
2023/09/23 04:52:03;;;;;;;5.45;1.27;;;;;;;22.41;58.43;98155.56;2064109;28;20390;-63
2023/09/23 04:53:06;;;;;;;4.20;1.60;;;;;;;22.40;58.05;98147.69;2066542;28;20070;-63
2023/09/23 04:54:08;;;;;;;4.47;1.10;;;;;;;22.47;57.80;98148.38;2067140;28;20054;-63
2023/09/23 04:55:09;;;;;;;7.10;1.20;;;;;;;22.52;57.83;98152.00;2057274;28;20700;-62